sensor_id;sensor_type;location;lat;lon;timestamp;P1;durP1;ratioP1;P2;durP2;ratioP2
68310;SDS011;55157;51.036;17.058;2023-05-10T00:00:08;14.27;;;6.78;;
68310;SDS011;55157;51.036;17.058;2023-05-10T00:02:33;12.27;;;7.20;;
68310;SDS011;55157;51.036;17.058;2023-05-10T00:04:58;32.17;;;8.77;;
68310;SDS011;55157;51.036;17.058;2023-05-10T00:07:23;12.30;;;6.78;;
68310;SDS011;55157;51.036;17.058;2023-05-10T00:09:49;16.83;;;6.90;;
68310;SDS011;55157;51.036;17.058;2023-05-10T00:12:14;15.27;;;7.57;;
68310;SDS011;55157;51.036;17.058;2023-05-10T00:14:41;13.65;;;6.45;;
68310;SDS011;55157;51.036;17.058;2023-05-10T00:17:06;22.95;;;7.18;;
68310;SDS011;55157;51.036;17.058;2023-05-10T00:19:31;12.60;;;7.63;;
68310;SDS011;55157;51.036;17.058;2023-05-10T00:21:56;14.27;;;7.35;;
68310;SDS011;55157;51.036;17.058;2023-05-10T00:24:22;13.82;;;7.90;;
68310;SDS011;55157;51.036;17.058;2023-05-10T00:26:47;18.60;;;6.95;;
68310;SDS011;55157;51.036;17.058;2023-05-10T00:29:12;11.35;;;7.30;;
68310;SDS011;55157;51.036;17.058;2023-05-10T00:31:39;12.95;;;7.05;;
68310;SDS011;55157;51.036;17.058;2023-05-10T00:34:04;20.08;;;7.65;;
68310;SDS011;55157;51.036;17.058;2023-05-10T00:36:29;11.88;;;7.18;;
68310;SDS011;55157;51.036;17.058;2023-05-10T00:38:54;10.90;;;7.20;;
68310;SDS011;55157;51.036;17.058;2023-05-10T00:41:20;13.57;;;6.97;;
68310;SDS011;55157;51.036;17.058;2023-05-10T00:43:45;12.35;;;6.97;;
68310;SDS011;55157;51.036;17.058;2023-05-10T00:46:10;13.02;;;7.20;;
68310;SDS011;55157;51.036;17.058;2023-05-10T00:48:37;15.98;;;8.30;;
68310;SDS011;55157;51.036;17.058;2023-05-10T00:51:02;12.77;;;6.70;;
68310;SDS011;55157;51.036;17.058;2023-05-10T00:53:28;14.40;;;7.55;;
68310;SDS011;55157;51.036;17.058;2023-05-10T00:55:53;14.30;;;7.70;;
68310;SDS011;55157;51.036;17.058;2023-05-10T00:58:18;13.68;;;7.57;;
68310;SDS011;55157;51.036;17.058;2023-05-10T01:00:44;11.98;;;7.53;;
68310;SDS011;55157;51.036;17.058;2023-05-10T01:03:11;14.00;;;7.88;;
68310;SDS011;55157;51.036;17.058;2023-05-10T01:05:38;13.52;;;8.18;;
68310;SDS011;55157;51.036;17.058;2023-05-10T01:08:03;21.08;;;7.60;;
68310;SDS011;55157;51.036;17.058;2023-05-10T01:10:29;15.65;;;8.50;;
68310;SDS011;55157;51.036;17.058;2023-05-10T01:12:54;12.60;;;7.75;;
68310;SDS011;55157;51.036;17.058;2023-05-10T01:15:19;13.98;;;7.82;;
68310;SDS011;55157;51.036;17.058;2023-05-10T01:17:45;16.08;;;8.05;;
68310;SDS011;55157;51.036;17.058;2023-05-10T01:20:11;13.70;;;7.43;;
68310;SDS011;55157;51.036;17.058;2023-05-10T01:25:34;17.33;;;8.32;;
68310;SDS011;55157;51.036;17.058;2023-05-10T01:28:25;14.05;;;8.15;;
68310;SDS011;55157;51.036;17.058;2023-05-10T01:31:07;13.13;;;8.90;;
68310;SDS011;55157;51.036;17.058;2023-05-10T01:33:35;13.98;;;8.30;;
68310;SDS011;55157;51.036;17.058;2023-05-10T01:36:05;12.68;;;8.23;;
68310;SDS011;55157;51.036;17.058;2023-05-10T01:38:33;16.38;;;9.18;;
68310;SDS011;55157;51.036;17.058;2023-05-10T01:41:13;16.35;;;8.65;;
68310;SDS011;55157;51.036;17.058;2023-05-10T01:43:42;11.75;;;8.48;;
68310;SDS011;55157;51.036;17.058;2023-05-10T01:46:09;16.83;;;8.55;;
68310;SDS011;55157;51.036;17.058;2023-05-10T01:48:37;18.23;;;8.80;;
68310;SDS011;55157;51.036;17.058;2023-05-10T01:51:03;13.68;;;8.77;;
68310;SDS011;55157;51.036;17.058;2023-05-10T01:53:29;15.70;;;9.15;;
68310;SDS011;55157;51.036;17.058;2023-05-10T01:55:55;18.50;;;9.77;;
68310;SDS011;55157;51.036;17.058;2023-05-10T01:58:22;21.58;;;9.38;;
68310;SDS011;55157;51.036;17.058;2023-05-10T02:00:48;16.23;;;8.75;;
68310;SDS011;55157;51.036;17.058;2023-05-10T02:03:14;11.75;;;7.10;;
68310;SDS011;55157;51.036;17.058;2023-05-10T02:05:42;13.70;;;8.75;;
68310;SDS011;55157;51.036;17.058;2023-05-10T02:08:08;18.40;;;8.40;;
68310;SDS011;55157;51.036;17.058;2023-05-10T02:10:34;20.83;;;9.98;;
68310;SDS011;55157;51.036;17.058;2023-05-10T02:12:59;11.98;;;8.52;;
68310;SDS011;55157;51.036;17.058;2023-05-10T02:15:25;17.20;;;9.55;;
68310;SDS011;55157;51.036;17.058;2023-05-10T02:17:51;13.07;;;8.52;;
68310;SDS011;55157;51.036;17.058;2023-05-10T02:20:17;14.70;;;8.40;;
68310;SDS011;55157;51.036;17.058;2023-05-10T02:22:45;15.68;;;7.85;;
68310;SDS011;55157;51.036;17.058;2023-05-10T02:25:12;15.98;;;8.95;;
68310;SDS011;55157;51.036;17.058;2023-05-10T02:27:38;15.80;;;8.93;;
68310;SDS011;55157;51.036;17.058;2023-05-10T02:30:05;16.77;;;8.63;;
68310;SDS011;55157;51.036;17.058;2023-05-10T02:32:30;16.65;;;9.48;;
68310;SDS011;55157;51.036;17.058;2023-05-10T02:34:56;17.80;;;8.52;;
68310;SDS011;55157;51.036;17.058;2023-05-10T02:37:22;12.75;;;8.38;;
68310;SDS011;55157;51.036;17.058;2023-05-10T02:39:49;18.60;;;8.93;;
68310;SDS011;55157;51.036;17.058;2023-05-10T02:42:15;16.05;;;8.27;;
68310;SDS011;55157;51.036;17.058;2023-05-10T02:44:41;17.88;;;8.82;;
68310;SDS011;55157;51.036;17.058;2023-05-10T02:47:07;13.65;;;8.32;;
68310;SDS011;55157;51.036;17.058;2023-05-10T02:49:32;13.63;;;8.82;;
68310;SDS011;55157;51.036;17.058;2023-05-10T02:51:59;18.05;;;10.18;;
68310;SDS011;55157;51.036;17.058;2023-05-10T02:54:27;11.05;;;8.07;;
68310;SDS011;55157;51.036;17.058;2023-05-10T02:56:55;16.50;;;9.25;;
68310;SDS011;55157;51.036;17.058;2023-05-10T02:59:21;17.65;;;9.80;;
68310;SDS011;55157;51.036;17.058;2023-05-10T03:01:46;15.30;;;8.98;;
68310;SDS011;55157;51.036;17.058;2023-05-10T03:04:12;21.10;;;9.52;;
68310;SDS011;55157;51.036;17.058;2023-05-10T03:06:37;13.75;;;8.68;;
68310;SDS011;55157;51.036;17.058;2023-05-10T03:09:02;19.20;;;10.35;;
68310;SDS011;55157;51.036;17.058;2023-05-10T03:11:32;19.92;;;10.73;;
68310;SDS011;55157;51.036;17.058;2023-05-10T03:16:29;14.70;;;9.13;;
68310;SDS011;55157;51.036;17.058;2023-05-10T03:19:00;16.80;;;9.05;;
68310;SDS011;55157;51.036;17.058;2023-05-10T03:21:28;13.88;;;8.57;;
68310;SDS011;55157;51.036;17.058;2023-05-10T03:23:55;13.02;;;8.18;;
68310;SDS011;55157;51.036;17.058;2023-05-10T03:26:24;20.98;;;9.20;;
68310;SDS011;55157;51.036;17.058;2023-05-10T03:28:50;17.95;;;8.93;;
68310;SDS011;55157;51.036;17.058;2023-05-10T03:31:17;15.07;;;8.73;;
68310;SDS011;55157;51.036;17.058;2023-05-10T03:33:47;14.80;;;8.23;;
68310;SDS011;55157;51.036;17.058;2023-05-10T03:36:12;13.35;;;8.45;;
68310;SDS011;55157;51.036;17.058;2023-05-10T03:38:37;17.98;;;8.90;;
68310;SDS011;55157;51.036;17.058;2023-05-10T03:41:03;16.73;;;9.20;;
68310;SDS011;55157;51.036;17.058;2023-05-10T03:43:28;18.55;;;8.70;;
68310;SDS011;55157;51.036;17.058;2023-05-10T03:45:53;17.65;;;8.68;;
68310;SDS011;55157;51.036;17.058;2023-05-10T03:48:18;19.33;;;8.75;;
68310;SDS011;55157;51.036;17.058;2023-05-10T03:50:45;16.45;;;8.43;;
68310;SDS011;55157;51.036;17.058;2023-05-10T03:53:10;16.42;;;9.65;;
68310;SDS011;55157;51.036;17.058;2023-05-10T03:55:35;14.07;;;9.07;;
68310;SDS011;55157;51.036;17.058;2023-05-10T03:58:01;16.27;;;9.02;;
68310;SDS011;55157;51.036;17.058;2023-05-10T04:00:26;17.52;;;9.25;;
68310;SDS011;55157;51.036;17.058;2023-05-10T04:02:51;15.13;;;8.93;;
68310;SDS011;55157;51.036;17.058;2023-05-10T04:05:17;18.15;;;9.65;;
68310;SDS011;55157;51.036;17.058;2023-05-10T04:07:44;19.02;;;9.65;;
68310;SDS011;55157;51.036;17.058;2023-05-10T04:10:09;16.63;;;8.18;;
68310;SDS011;55157;51.036;17.058;2023-05-10T04:12:34;16.65;;;9.45;;
68310;SDS011;55157;51.036;17.058;2023-05-10T04:14:59;20.20;;;9.00;;
68310;SDS011;55157;51.036;17.058;2023-05-10T04:17:25;16.13;;;9.27;;
68310;SDS011;55157;51.036;17.058;2023-05-10T04:19:50;20.13;;;8.45;;
68310;SDS011;55157;51.036;17.058;2023-05-10T04:22:15;19.52;;;8.07;;
68310;SDS011;55157;51.036;17.058;2023-05-10T04:24:42;19.30;;;9.90;;
68310;SDS011;55157;51.036;17.058;2023-05-10T04:27:07;15.15;;;8.93;;
68310;SDS011;55157;51.036;17.058;2023-05-10T04:29:32;17.10;;;8.10;;
68310;SDS011;55157;51.036;17.058;2023-05-10T04:31:58;16.88;;;9.00;;
68310;SDS011;55157;51.036;17.058;2023-05-10T04:34:23;16.70;;;8.52;;
68310;SDS011;55157;51.036;17.058;2023-05-10T04:36:48;18.65;;;9.23;;
68310;SDS011;55157;51.036;17.058;2023-05-10T04:39:13;17.30;;;8.90;;
68310;SDS011;55157;51.036;17.058;2023-05-10T04:41:40;24.00;;;8.95;;
68310;SDS011;55157;51.036;17.058;2023-05-10T04:44:05;17.55;;;8.32;;
68310;SDS011;55157;51.036;17.058;2023-05-10T04:46:30;16.00;;;8.35;;
68310;SDS011;55157;51.036;17.058;2023-05-10T04:48:56;21.90;;;8.95;;
68310;SDS011;55157;51.036;17.058;2023-05-10T04:51:21;15.00;;;8.60;;
68310;SDS011;55157;51.036;17.058;2023-05-10T04:53:46;21.73;;;8.20;;
68310;SDS011;55157;51.036;17.058;2023-05-10T04:56:12;20.30;;;8.05;;
68310;SDS011;55157;51.036;17.058;2023-05-10T04:58:38;22.73;;;8.52;;
68310;SDS011;55157;51.036;17.058;2023-05-10T05:01:07;14.68;;;7.20;;
68310;SDS011;55157;51.036;17.058;2023-05-10T05:03:32;13.68;;;6.72;;
68310;SDS011;55157;51.036;17.058;2023-05-10T05:05:57;17.50;;;8.57;;
68310;SDS011;55157;51.036;17.058;2023-05-10T05:08:22;17.25;;;7.72;;
68310;SDS011;55157;51.036;17.058;2023-05-10T05:10:48;14.25;;;7.57;;
68310;SDS011;55157;51.036;17.058;2023-05-10T05:13:13;14.63;;;8.15;;
68310;SDS011;55157;51.036;17.058;2023-05-10T05:15:40;33.30;;;8.50;;
68310;SDS011;55157;51.036;17.058;2023-05-10T05:18:05;15.45;;;8.27;;
68310;SDS011;55157;51.036;17.058;2023-05-10T05:20:31;23.00;;;8.70;;
68310;SDS011;55157;51.036;17.058;2023-05-10T05:22:56;15.75;;;8.50;;
68310;SDS011;55157;51.036;17.058;2023-05-10T05:25:22;17.20;;;7.80;;
68310;SDS011;55157;51.036;17.058;2023-05-10T05:27:47;13.73;;;6.43;;
68310;SDS011;55157;51.036;17.058;2023-05-10T05:30:12;11.48;;;7.40;;
68310;SDS011;55157;51.036;17.058;2023-05-10T05:32:39;14.50;;;7.75;;
68310;SDS011;55157;51.036;17.058;2023-05-10T05:35:04;15.43;;;7.63;;
68310;SDS011;55157;51.036;17.058;2023-05-10T05:37:30;14.25;;;7.45;;
68310;SDS011;55157;51.036;17.058;2023-05-10T05:39:55;24.80;;;7.18;;
68310;SDS011;55157;51.036;17.058;2023-05-10T05:42:20;12.65;;;7.45;;
68310;SDS011;55157;51.036;17.058;2023-05-10T05:44:45;17.25;;;7.50;;
68310;SDS011;55157;51.036;17.058;2023-05-10T05:47:11;13.18;;;6.75;;
68310;SDS011;55157;51.036;17.058;2023-05-10T05:49:37;15.20;;;7.47;;
68310;SDS011;55157;51.036;17.058;2023-05-10T05:52:03;12.75;;;6.93;;
68310;SDS011;55157;51.036;17.058;2023-05-10T05:54:29;12.68;;;7.25;;
68310;SDS011;55157;51.036;17.058;2023-05-10T05:56:54;13.13;;;7.32;;
68310;SDS011;55157;51.036;17.058;2023-05-10T05:59:20;14.13;;;7.55;;
68310;SDS011;55157;51.036;17.058;2023-05-10T06:01:45;16.38;;;7.22;;
68310;SDS011;55157;51.036;17.058;2023-05-10T06:04:10;17.55;;;7.60;;
68310;SDS011;55157;51.036;17.058;2023-05-10T06:06:37;16.58;;;6.93;;
68310;SDS011;55157;51.036;17.058;2023-05-10T06:09:02;12.95;;;6.88;;
68310;SDS011;55157;51.036;17.058;2023-05-10T06:11:28;14.73;;;7.70;;
68310;SDS011;55157;51.036;17.058;2023-05-10T06:13:53;17.67;;;7.32;;
68310;SDS011;55157;51.036;17.058;2023-05-10T06:16:18;14.32;;;7.47;;
68310;SDS011;55157;51.036;17.058;2023-05-10T06:18:43;19.52;;;7.22;;
68310;SDS011;55157;51.036;17.058;2023-05-10T06:21:09;14.35;;;6.25;;
68310;SDS011;55157;51.036;17.058;2023-05-10T06:23:35;26.83;;;6.93;;
68310;SDS011;55157;51.036;17.058;2023-05-10T06:26:00;18.98;;;7.07;;
68310;SDS011;55157;51.036;17.058;2023-05-10T06:28:26;13.10;;;6.63;;
68310;SDS011;55157;51.036;17.058;2023-05-10T06:30:51;17.35;;;6.63;;
68310;SDS011;55157;51.036;17.058;2023-05-10T06:33:16;11.05;;;6.50;;
68310;SDS011;55157;51.036;17.058;2023-05-10T06:35:41;25.42;;;7.10;;
68310;SDS011;55157;51.036;17.058;2023-05-10T06:38:07;18.30;;;6.18;;
68310;SDS011;55157;51.036;17.058;2023-05-10T06:40:33;10.30;;;6.45;;
68310;SDS011;55157;51.036;17.058;2023-05-10T06:42:59;13.63;;;5.80;;
68310;SDS011;55157;51.036;17.058;2023-05-10T06:45:24;9.18;;;5.55;;
68310;SDS011;55157;51.036;17.058;2023-05-10T06:47:49;15.00;;;6.38;;
68310;SDS011;55157;51.036;17.058;2023-05-10T06:50:14;8.95;;;5.38;;
68310;SDS011;55157;51.036;17.058;2023-05-10T06:52:39;10.70;;;5.43;;
68310;SDS011;55157;51.036;17.058;2023-05-10T06:55:05;13.45;;;5.72;;
68310;SDS011;55157;51.036;17.058;2023-05-10T06:57:32;34.70;;;6.45;;
68310;SDS011;55157;51.036;17.058;2023-05-10T06:59:58;21.02;;;5.82;;
68310;SDS011;55157;51.036;17.058;2023-05-10T07:02:23;11.88;;;5.50;;
68310;SDS011;55157;51.036;17.058;2023-05-10T07:04:49;12.52;;;5.45;;
68310;SDS011;55157;51.036;17.058;2023-05-10T07:07:14;13.90;;;5.25;;
68310;SDS011;55157;51.036;17.058;2023-05-10T07:09:39;10.52;;;5.28;;
68310;SDS011;55157;51.036;17.058;2023-05-10T07:12:05;12.75;;;5.63;;
68310;SDS011;55157;51.036;17.058;2023-05-10T07:14:31;12.30;;;5.60;;
68310;SDS011;55157;51.036;17.058;2023-05-10T07:16:57;8.13;;;5.03;;
68310;SDS011;55157;51.036;17.058;2023-05-10T07:19:22;20.20;;;5.28;;
68310;SDS011;55157;51.036;17.058;2023-05-10T07:21:47;13.85;;;5.40;;
68310;SDS011;55157;51.036;17.058;2023-05-10T07:24:12;7.22;;;4.40;;
68310;SDS011;55157;51.036;17.058;2023-05-10T07:26:38;15.27;;;4.43;;
68310;SDS011;55157;51.036;17.058;2023-05-10T07:29:03;7.35;;;3.78;;
68310;SDS011;55157;51.036;17.058;2023-05-10T07:31:30;9.60;;;4.85;;
68310;SDS011;55157;51.036;17.058;2023-05-10T07:33:55;7.63;;;3.90;;
68310;SDS011;55157;51.036;17.058;2023-05-10T07:36:20;14.57;;;4.70;;
68310;SDS011;55157;51.036;17.058;2023-05-10T07:38:45;10.55;;;4.45;;
68310;SDS011;55157;51.036;17.058;2023-05-10T07:41:11;10.07;;;4.50;;
68310;SDS011;55157;51.036;17.058;2023-05-10T07:43:36;9.13;;;4.07;;
68310;SDS011;55157;51.036;17.058;2023-05-10T07:46:02;7.57;;;3.97;;
68310;SDS011;55157;51.036;17.058;2023-05-10T07:48:28;7.03;;;3.72;;
68310;SDS011;55157;51.036;17.058;2023-05-10T07:50:53;18.38;;;3.85;;
68310;SDS011;55157;51.036;17.058;2023-05-10T07:53:19;6.07;;;3.60;;
68310;SDS011;55157;51.036;17.058;2023-05-10T07:55:44;13.48;;;3.97;;
68310;SDS011;55157;51.036;17.058;2023-05-10T07:58:14;4.75;;;3.40;;
68310;SDS011;55157;51.036;17.058;2023-05-10T08:00:39;10.82;;;3.55;;
68310;SDS011;55157;51.036;17.058;2023-05-10T08:03:05;6.90;;;3.05;;
68310;SDS011;55157;51.036;17.058;2023-05-10T08:05:31;5.70;;;3.42;;
68310;SDS011;55157;51.036;17.058;2023-05-10T08:07:57;9.57;;;3.80;;
68310;SDS011;55157;51.036;17.058;2023-05-10T08:10:22;5.28;;;3.65;;
68310;SDS011;55157;51.036;17.058;2023-05-10T08:12:47;10.18;;;3.50;;
68310;SDS011;55157;51.036;17.058;2023-05-10T08:15:12;9.93;;;3.70;;
68310;SDS011;55157;51.036;17.058;2023-05-10T08:17:38;8.85;;;3.67;;
68310;SDS011;55157;51.036;17.058;2023-05-10T08:20:03;34.85;;;5.22;;
68310;SDS011;55157;51.036;17.058;2023-05-10T08:22:30;11.15;;;3.10;;
68310;SDS011;55157;51.036;17.058;2023-05-10T08:24:55;8.40;;;3.40;;
68310;SDS011;55157;51.036;17.058;2023-05-10T08:27:21;12.02;;;4.63;;
68310;SDS011;55157;51.036;17.058;2023-05-10T08:29:46;6.15;;;3.55;;
68310;SDS011;55157;51.036;17.058;2023-05-10T08:32:11;4.07;;;2.85;;
68310;SDS011;55157;51.036;17.058;2023-05-10T08:34:36;5.50;;;3.38;;
68310;SDS011;55157;51.036;17.058;2023-05-10T08:37:01;6.78;;;3.40;;
68310;SDS011;55157;51.036;17.058;2023-05-10T08:39:28;5.38;;;3.28;;
68310;SDS011;55157;51.036;17.058;2023-05-10T08:41:53;8.05;;;2.95;;
68310;SDS011;55157;51.036;17.058;2023-05-10T08:44:20;5.63;;;3.08;;
68310;SDS011;55157;51.036;17.058;2023-05-10T08:46:46;15.40;;;4.97;;
68310;SDS011;55157;51.036;17.058;2023-05-10T08:49:11;12.18;;;3.10;;
68310;SDS011;55157;51.036;17.058;2023-05-10T08:51:39;6.63;;;3.15;;
68310;SDS011;55157;51.036;17.058;2023-05-10T08:54:05;6.10;;;2.67;;
68310;SDS011;55157;51.036;17.058;2023-05-10T08:56:32;9.55;;;3.88;;
68310;SDS011;55157;51.036;17.058;2023-05-10T08:58:57;7.55;;;3.20;;
68310;SDS011;55157;51.036;17.058;2023-05-10T09:01:22;2.75;;;2.40;;
68310;SDS011;55157;51.036;17.058;2023-05-10T09:03:48;10.30;;;2.83;;
68310;SDS011;55157;51.036;17.058;2023-05-10T09:06:13;7.90;;;2.58;;
68310;SDS011;55157;51.036;17.058;2023-05-10T09:08:38;4.68;;;2.75;;
68310;SDS011;55157;51.036;17.058;2023-05-10T09:11:05;6.05;;;3.08;;
68310;SDS011;55157;51.036;17.058;2023-05-10T09:13:32;6.43;;;2.63;;
68310;SDS011;55157;51.036;17.058;2023-05-10T09:15:57;6.32;;;3.08;;
68310;SDS011;55157;51.036;17.058;2023-05-10T09:18:22;6.28;;;2.42;;
68310;SDS011;55157;51.036;17.058;2023-05-10T09:20:48;5.82;;;3.13;;
68310;SDS011;55157;51.036;17.058;2023-05-10T09:23:13;6.70;;;3.00;;
68310;SDS011;55157;51.036;17.058;2023-05-10T09:25:38;4.63;;;3.00;;
68310;SDS011;55157;51.036;17.058;2023-05-10T09:28:06;5.43;;;2.75;;
68310;SDS011;55157;51.036;17.058;2023-05-10T09:30:33;14.18;;;3.67;;
68310;SDS011;55157;51.036;17.058;2023-05-10T09:32:59;6.70;;;2.90;;
68310;SDS011;55157;51.036;17.058;2023-05-10T09:35:25;5.07;;;2.90;;
68310;SDS011;55157;51.036;17.058;2023-05-10T09:37:51;6.68;;;2.60;;
68310;SDS011;55157;51.036;17.058;2023-05-10T09:40:16;5.80;;;2.60;;
68310;SDS011;55157;51.036;17.058;2023-05-10T09:42:42;8.88;;;3.83;;
68310;SDS011;55157;51.036;17.058;2023-05-10T09:45:08;5.72;;;2.65;;
68310;SDS011;55157;51.036;17.058;2023-05-10T09:47:35;8.15;;;2.80;;
68310;SDS011;55157;51.036;17.058;2023-05-10T09:50:00;8.63;;;2.67;;
68310;SDS011;55157;51.036;17.058;2023-05-10T09:52:26;9.80;;;2.50;;
68310;SDS011;55157;51.036;17.058;2023-05-10T09:54:52;8.70;;;2.92;;
68310;SDS011;55157;51.036;17.058;2023-05-10T09:57:18;11.15;;;2.47;;
68310;SDS011;55157;51.036;17.058;2023-05-10T09:59:45;3.50;;;2.17;;
68310;SDS011;55157;51.036;17.058;2023-05-10T10:02:10;5.30;;;2.10;;
68310;SDS011;55157;51.036;17.058;2023-05-10T10:04:40;9.27;;;1.90;;
68310;SDS011;55157;51.036;17.058;2023-05-10T10:07:05;6.72;;;2.08;;
68310;SDS011;55157;51.036;17.058;2023-05-10T10:09:30;6.15;;;2.00;;
68310;SDS011;55157;51.036;17.058;2023-05-10T10:11:56;6.28;;;2.20;;
68310;SDS011;55157;51.036;17.058;2023-05-10T10:14:21;3.05;;;2.10;;
68310;SDS011;55157;51.036;17.058;2023-05-10T10:16:47;8.68;;;2.67;;
68310;SDS011;55157;51.036;17.058;2023-05-10T10:19:12;4.88;;;2.20;;
68310;SDS011;55157;51.036;17.058;2023-05-10T10:21:39;9.43;;;2.33;;
68310;SDS011;55157;51.036;17.058;2023-05-10T10:24:04;4.90;;;2.38;;
68310;SDS011;55157;51.036;17.058;2023-05-10T10:26:30;2.33;;;2.10;;
68310;SDS011;55157;51.036;17.058;2023-05-10T10:28:57;2.67;;;2.15;;
68310;SDS011;55157;51.036;17.058;2023-05-10T10:31:26;7.78;;;2.42;;
68310;SDS011;55157;51.036;17.058;2023-05-10T10:33:56;3.28;;;2.13;;
68310;SDS011;55157;51.036;17.058;2023-05-10T10:36:24;4.30;;;1.85;;
68310;SDS011;55157;51.036;17.058;2023-05-10T10:39:00;5.65;;;2.30;;
68310;SDS011;55157;51.036;17.058;2023-05-10T10:41:29;5.88;;;3.20;;
68310;SDS011;55157;51.036;17.058;2023-05-10T10:46:35;4.15;;;2.00;;
68310;SDS011;55157;51.036;17.058;2023-05-10T10:49:20;9.95;;;2.60;;
68310;SDS011;55157;51.036;17.058;2023-05-10T10:54:28;10.60;;;3.20;;
68310;SDS011;55157;51.036;17.058;2023-05-10T10:59:33;8.10;;;2.83;;
68310;SDS011;55157;51.036;17.058;2023-05-10T11:01:58;4.27;;;1.83;;
68310;SDS011;55157;51.036;17.058;2023-05-10T11:04:23;4.10;;;2.30;;
68310;SDS011;55157;51.036;17.058;2023-05-10T11:06:49;13.68;;;2.45;;
68310;SDS011;55157;51.036;17.058;2023-05-10T11:09:14;8.30;;;1.95;;
68310;SDS011;55157;51.036;17.058;2023-05-10T11:14:24;3.28;;;1.88;;
68310;SDS011;55157;51.036;17.058;2023-05-10T11:16:50;5.85;;;2.13;;
68310;SDS011;55157;51.036;17.058;2023-05-10T11:19:15;8.30;;;2.20;;
68310;SDS011;55157;51.036;17.058;2023-05-10T11:21:45;9.07;;;2.20;;
68310;SDS011;55157;51.036;17.058;2023-05-10T11:24:12;2.58;;;1.80;;
68310;SDS011;55157;51.036;17.058;2023-05-10T11:26:38;4.55;;;1.88;;
68310;SDS011;55157;51.036;17.058;2023-05-10T11:29:03;8.15;;;2.40;;
68310;SDS011;55157;51.036;17.058;2023-05-10T11:31:29;11.07;;;2.20;;
68310;SDS011;55157;51.036;17.058;2023-05-10T11:33:55;7.05;;;2.30;;
68310;SDS011;55157;51.036;17.058;2023-05-10T11:36:21;13.82;;;1.77;;
68310;SDS011;55157;51.036;17.058;2023-05-10T11:38:47;3.85;;;1.63;;
68310;SDS011;55157;51.036;17.058;2023-05-10T11:41:12;10.32;;;2.17;;
68310;SDS011;55157;51.036;17.058;2023-05-10T11:43:38;5.57;;;2.08;;
68310;SDS011;55157;51.036;17.058;2023-05-10T11:46:04;6.32;;;2.08;;
68310;SDS011;55157;51.036;17.058;2023-05-10T11:48:30;4.57;;;2.00;;
68310;SDS011;55157;51.036;17.058;2023-05-10T11:50:56;8.30;;;1.95;;
68310;SDS011;55157;51.036;17.058;2023-05-10T11:53:21;5.55;;;2.28;;
68310;SDS011;55157;51.036;17.058;2023-05-10T11:55:47;6.72;;;2.78;;
68310;SDS011;55157;51.036;17.058;2023-05-10T11:58:12;10.52;;;3.33;;
68310;SDS011;55157;51.036;17.058;2023-05-10T12:00:38;7.60;;;2.15;;
68310;SDS011;55157;51.036;17.058;2023-05-10T12:03:03;6.03;;;1.98;;
68310;SDS011;55157;51.036;17.058;2023-05-10T12:05:32;9.82;;;2.10;;
68310;SDS011;55157;51.036;17.058;2023-05-10T12:08:10;12.20;;;1.60;;
68310;SDS011;55157;51.036;17.058;2023-05-10T12:10:35;7.15;;;1.70;;
68310;SDS011;55157;51.036;17.058;2023-05-10T12:13:00;4.07;;;1.42;;
68310;SDS011;55157;51.036;17.058;2023-05-10T12:15:26;7.13;;;1.83;;
68310;SDS011;55157;51.036;17.058;2023-05-10T12:17:52;8.60;;;1.95;;
68310;SDS011;55157;51.036;17.058;2023-05-10T12:20:18;2.28;;;1.65;;
68310;SDS011;55157;51.036;17.058;2023-05-10T12:22:45;8.55;;;2.25;;
68310;SDS011;55157;51.036;17.058;2023-05-10T12:25:11;7.47;;;1.60;;
68310;SDS011;55157;51.036;17.058;2023-05-10T12:27:36;9.98;;;1.88;;
68310;SDS011;55157;51.036;17.058;2023-05-10T12:30:02;4.65;;;1.90;;
68310;SDS011;55157;51.036;17.058;2023-05-10T12:32:37;6.50;;;1.80;;
68310;SDS011;55157;51.036;17.058;2023-05-10T12:35:03;8.20;;;1.70;;
68310;SDS011;55157;51.036;17.058;2023-05-10T12:37:28;5.05;;;1.95;;
68310;SDS011;55157;51.036;17.058;2023-05-10T12:39:55;5.13;;;1.77;;
68310;SDS011;55157;51.036;17.058;2023-05-10T12:42:20;10.23;;;1.98;;
68310;SDS011;55157;51.036;17.058;2023-05-10T12:44:45;5.80;;;1.65;;
68310;SDS011;55157;51.036;17.058;2023-05-10T12:47:11;3.13;;;1.92;;
68310;SDS011;55157;51.036;17.058;2023-05-10T12:49:36;4.30;;;1.40;;
68310;SDS011;55157;51.036;17.058;2023-05-10T12:52:01;5.05;;;1.70;;
68310;SDS011;55157;51.036;17.058;2023-05-10T12:54:26;3.72;;;1.58;;
68310;SDS011;55157;51.036;17.058;2023-05-10T12:56:53;1.98;;;1.27;;
68310;SDS011;55157;51.036;17.058;2023-05-10T12:59:18;2.95;;;1.35;;
68310;SDS011;55157;51.036;17.058;2023-05-10T13:01:43;4.63;;;1.55;;
68310;SDS011;55157;51.036;17.058;2023-05-10T13:04:09;20.38;;;2.20;;
68310;SDS011;55157;51.036;17.058;2023-05-10T13:06:34;7.50;;;2.03;;
68310;SDS011;55157;51.036;17.058;2023-05-10T13:08:59;5.15;;;1.45;;
68310;SDS011;55157;51.036;17.058;2023-05-10T13:11:24;2.30;;;1.35;;
68310;SDS011;55157;51.036;17.058;2023-05-10T13:13:52;5.60;;;1.33;;
68310;SDS011;55157;51.036;17.058;2023-05-10T13:16:18;4.40;;;1.30;;
68310;SDS011;55157;51.036;17.058;2023-05-10T13:18:43;11.75;;;1.92;;
68310;SDS011;55157;51.036;17.058;2023-05-10T13:21:08;1.95;;;1.13;;
68310;SDS011;55157;51.036;17.058;2023-05-10T13:23:33;4.05;;;1.58;;
68310;SDS011;55157;51.036;17.058;2023-05-10T13:25:58;5.38;;;1.77;;
68310;SDS011;55157;51.036;17.058;2023-05-10T13:28:24;3.17;;;1.60;;
68310;SDS011;55157;51.036;17.058;2023-05-10T13:30:50;5.68;;;1.80;;
68310;SDS011;55157;51.036;17.058;2023-05-10T13:33:16;5.63;;;1.50;;
68310;SDS011;55157;51.036;17.058;2023-05-10T13:35:41;20.10;;;2.88;;
68310;SDS011;55157;51.036;17.058;2023-05-10T13:38:06;1.52;;;1.25;;
68310;SDS011;55157;51.036;17.058;2023-05-10T13:40:31;5.65;;;1.48;;
68310;SDS011;55157;51.036;17.058;2023-05-10T13:42:57;3.58;;;1.92;;
68310;SDS011;55157;51.036;17.058;2023-05-10T13:45:22;9.30;;;1.95;;
68310;SDS011;55157;51.036;17.058;2023-05-10T13:47:48;3.90;;;2.05;;
68310;SDS011;55157;51.036;17.058;2023-05-10T13:50:14;4.50;;;1.50;;
68310;SDS011;55157;51.036;17.058;2023-05-10T13:52:39;6.78;;;2.10;;
68310;SDS011;55157;51.036;17.058;2023-05-10T13:55:04;4.00;;;1.30;;
68310;SDS011;55157;51.036;17.058;2023-05-10T13:57:30;6.22;;;1.70;;
68310;SDS011;55157;51.036;17.058;2023-05-10T13:59:55;3.13;;;1.55;;
68310;SDS011;55157;51.036;17.058;2023-05-10T14:02:20;4.85;;;1.20;;
68310;SDS011;55157;51.036;17.058;2023-05-10T14:04:47;2.83;;;1.35;;
68310;SDS011;55157;51.036;17.058;2023-05-10T14:07:12;2.53;;;1.63;;
68310;SDS011;55157;51.036;17.058;2023-05-10T14:09:38;5.90;;;1.65;;
68310;SDS011;55157;51.036;17.058;2023-05-10T14:12:03;5.43;;;1.63;;
68310;SDS011;55157;51.036;17.058;2023-05-10T14:14:28;3.72;;;1.42;;
68310;SDS011;55157;51.036;17.058;2023-05-10T14:16:54;3.08;;;1.77;;
68310;SDS011;55157;51.036;17.058;2023-05-10T14:19:19;11.05;;;3.15;;
68310;SDS011;55157;51.036;17.058;2023-05-10T14:21:46;1.27;;;1.08;;
68310;SDS011;55157;51.036;17.058;2023-05-10T14:24:11;4.45;;;1.77;;
68310;SDS011;55157;51.036;17.058;2023-05-10T14:26:36;1.52;;;1.25;;
68310;SDS011;55157;51.036;17.058;2023-05-10T14:29:01;2.80;;;1.50;;
68310;SDS011;55157;51.036;17.058;2023-05-10T14:31:27;5.68;;;1.30;;
68310;SDS011;55157;51.036;17.058;2023-05-10T14:33:52;5.35;;;1.73;;